Pagrindinis puslapis
METAR-TAF:

METAR-TAF

Oro uostai :

Džordžtaunas, Didysis Kaimanas, Kaimanų salos

platuma: 19-17N, ilguma: 081-21W, Aukštis: 3 m

Dabartinis oras

Ataskaita buvo paskelbta 30 minutes, ne 01:00 UTC
Vėjas 5 kt iš Šiaurės Rytų
Temperatūra 28°C
Drėgmė 84%
Slėgis 1014 hPa
Matomumas 10 km arba daugiau
Mažai debesys ne aukštis 1800 ft

METAR: MWCR 250100Z 04005KT 9999 FEW018 28/25 Q1014

Laikas: 20:30 (01:30 UTC)

Prognozė

Ataskaita buvo paskelbta 2 valandos ir 30 minutes, ne 23:00 UTC
Prognozė galioja nuo 24 metu 18 UTC su 25 metu 18 UTC
Vėjas 13 kt iš Rytų/Pietryčių
Matomumas 10 km arba daugiau
Išsisklaidę debesys ne aukštis 1600 ft
Laikinai
nuo 25 metu 06 UTC su 25 metu 12 UTC
Matomumas: 9000 m
Išsisklaidę debesys ne aukštis 1600 ft
lietus
Laikinai
nuo 25 metu 16 UTC su 25 metu 22 UTC
Matomumas: 8000 m
Išsisklaidę debesys ne aukštis 1600 ft, Liūtiniai kamuoliniai debesys.
perkūnija, lietus

TAF: MWCR 242300Z 2418/2518 12013KT 9999 SCT016 TEMPO 2506/2512 9000 SHRA SCT016 TEMPO 2516/2522 8000 TSRA SCT016CB

Orai ataskaitas ir orų prognozės (METAR, TAF).

turimą stotys yra geltonos ir raudonos taškus žemėlapyje.

Perkelti pele per norėdami pamatyti stoties vardą.

Tada spustelėkite, norėdami matyti oro stebėjimo ir prognozės.

Norėdami pakeisti žemėlapį: spustelėkite ant žalios mygtukų su juodo kryžiaus žemyn,; žalią mygtuką su brūkšneliu, jei norite nutolinti; arba žalių rodyklių gretimoms žemėlapius.


METAR-TAF: